sensor_id;sensor_type;location;lat;lon;timestamp;pressure;altitude;pressure_sealevel;temperature;humidity
62779;BME280;48821;48.796;2.396;2022-08-01T04:54:35;101631.69;;;24.57;52.03
62779;BME280;48821;48.796;2.396;2022-08-01T04:55:49;101639.59;;;24.58;52.25
62779;BME280;48821;48.796;2.396;2022-08-01T04:57:00;101625.44;;;24.56;51.81
62779;BME280;48821;48.796;2.396;2022-08-01T04:58:10;101632.41;;;24.59;52.36
62779;BME280;48821;48.796;2.396;2022-08-01T04:59:21;101632.28;;;24.60;51.84
62779;BME280;48821;48.796;2.396;2022-08-01T05:00:50;101629.44;;;24.62;51.91
62779;BME280;48821;48.796;2.396;2022-08-01T05:02:00;101635.69;;;24.63;52.18
62779;BME280;48821;48.796;2.396;2022-08-01T05:03:10;101637.50;;;24.62;52.43
62779;BME280;48821;48.796;2.396;2022-08-01T05:04:21;101636.78;;;24.60;52.16
62779;BME280;48821;48.796;2.396;2022-08-01T05:05:31;101636.78;;;24.60;51.73
62779;BME280;48821;48.796;2.396;2022-08-01T05:06:42;101639.59;;;24.58;52.47
62779;BME280;48821;48.796;2.396;2022-08-01T05:07:52;101639.59;;;24.58;52.13
62779;BME280;48821;48.796;2.396;2022-08-01T05:09:02;101642.41;;;24.57;52.27
62779;BME280;48821;48.796;2.396;2022-08-01T05:10:13;101639.84;;;24.55;52.41
62779;BME280;48821;48.796;2.396;2022-08-01T05:11:23;101640.84;;;24.54;52.27
62779;BME280;48821;48.796;2.396;2022-08-01T05:12:33;101651.44;;;24.56;52.32
62779;BME280;48821;48.796;2.396;2022-08-01T05:13:43;101645.34;;;24.54;52.49
62779;BME280;48821;48.796;2.396;2022-08-01T05:14:54;101648.91;;;24.54;52.62
62779;BME280;48821;48.796;2.396;2022-08-01T05:16:04;101655.97;;;24.55;52.63
62779;BME280;48821;48.796;2.396;2022-08-01T05:17:14;101656.94;;;24.54;52.47
62779;BME280;48821;48.796;2.396;2022-08-01T05:18:26;101659.50;;;24.56;52.72
62779;BME280;48821;48.796;2.396;2022-08-01T05:19:38;101660.47;;;24.55;52.68
62779;BME280;48821;48.796;2.396;2022-08-01T05:20:49;101657.06;;;24.53;52.56
62779;BME280;48821;48.796;2.396;2022-08-01T05:22:01;101659.63;;;24.54;52.79
62779;BME280;48821;48.796;2.396;2022-08-01T05:23:11;101651.69;;;24.53;52.89
62779;BME280;48821;48.796;2.396;2022-08-01T05:24:22;101657.91;;;24.53;52.85
62779;BME280;48821;48.796;2.396;2022-08-01T05:25:32;101655.34;;;24.52;52.80
62779;BME280;48821;48.796;2.396;2022-08-01T05:26:43;101659.00;;;24.50;53.03
62779;BME280;48821;48.796;2.396;2022-08-01T05:27:53;101667.94;;;24.51;53.17
62779;BME280;48821;48.796;2.396;2022-08-01T05:29:04;101662.69;;;24.49;52.67
62779;BME280;48821;48.796;2.396;2022-08-01T05:30:14;101668.06;;;24.49;52.54
62779;BME280;48821;48.796;2.396;2022-08-01T05:31:25;101664.63;;;24.47;52.88
62779;BME280;48821;48.796;2.396;2022-08-01T05:32:36;101658.50;;;24.45;52.86
62779;BME280;48821;48.796;2.396;2022-08-01T05:33:46;101660.97;;;24.48;53.14
62779;BME280;48821;48.796;2.396;2022-08-01T05:34:57;101655.59;;;24.48;53.04
62779;BME280;48821;48.796;2.396;2022-08-01T05:36:07;101655.72;;;24.47;52.62
62779;BME280;48821;48.796;2.396;2022-08-01T05:37:18;101659.00;;;24.50;52.71
62779;BME280;48821;48.796;2.396;2022-08-01T05:38:28;101654.63;;;24.49;52.73
62779;BME280;48821;48.796;2.396;2022-08-01T05:39:38;101659.00;;;24.50;52.75
62779;BME280;48821;48.796;2.396;2022-08-01T05:40:49;101659.00;;;24.50;52.50
62779;BME280;48821;48.796;2.396;2022-08-01T05:41:59;101661.56;;;24.52;52.57
62779;BME280;48821;48.796;2.396;2022-08-01T05:43:10;101650.22;;;24.48;52.62
62779;BME280;48821;48.796;2.396;2022-08-01T05:44:20;101655.34;;;24.52;52.51
62779;BME280;48821;48.796;2.396;2022-08-01T05:45:30;101655.34;;;24.52;52.69
62779;BME280;48821;48.796;2.396;2022-08-01T05:46:41;101657.06;;;24.53;52.63
62779;BME280;48821;48.796;2.396;2022-08-01T05:47:51;101657.06;;;24.53;52.80
62779;BME280;48821;48.796;2.396;2022-08-01T05:49:03;101652.53;;;24.53;52.12
62779;BME280;48821;48.796;2.396;2022-08-01T05:50:14;101655.97;;;24.55;52.38
62779;BME280;48821;48.796;2.396;2022-08-01T05:51:25;101653.41;;;24.54;52.15
62779;BME280;48821;48.796;2.396;2022-08-01T05:52:35;101654.25;;;24.54;52.78
62779;BME280;48821;48.796;2.396;2022-08-01T05:53:45;101656.09;;;24.54;52.56
62779;BME280;48821;48.796;2.396;2022-08-01T05:54:56;101662.44;;;24.53;52.38
62779;BME280;48821;48.796;2.396;2022-08-01T05:56:06;101673.19;;;24.53;52.44
62779;BME280;48821;48.796;2.396;2022-08-01T05:57:16;101663.41;;;24.52;52.72
62779;BME280;48821;48.796;2.396;2022-08-01T05:58:27;101672.31;;;24.52;52.36
62779;BME280;48821;48.796;2.396;2022-08-01T05:59:37;101667.81;;;24.53;52.55
62779;BME280;48821;48.796;2.396;2022-08-01T06:00:48;101670.38;;;24.54;52.41
62779;BME280;48821;48.796;2.396;2022-08-01T06:01:58;101669.28;;;24.57;53.02
62779;BME280;48821;48.796;2.396;2022-08-01T06:03:08;101675.41;;;24.59;52.89
62779;BME280;48821;48.796;2.396;2022-08-01T06:04:19;101670.03;;;24.59;52.36
62779;BME280;48821;48.796;2.396;2022-08-01T06:05:29;101669.03;;;24.60;52.67
62779;BME280;48821;48.796;2.396;2022-08-01T06:06:39;101672.44;;;24.62;52.25
62779;BME280;48821;48.796;2.396;2022-08-01T06:07:50;101680.28;;;24.65;52.51
62779;BME280;48821;48.796;2.396;2022-08-01T06:09:00;101677.59;;;24.65;52.42
62779;BME280;48821;48.796;2.396;2022-08-01T06:10:11;101678.44;;;24.66;51.99
62779;BME280;48821;48.796;2.396;2022-08-01T06:11:21;101681.13;;;24.66;52.41
62779;BME280;48821;48.796;2.396;2022-08-01T06:12:35;101681.25;;;24.64;52.26
62779;BME280;48821;48.796;2.396;2022-08-01T06:13:46;101678.69;;;24.63;52.72
62779;BME280;48821;48.796;2.396;2022-08-01T06:14:57;101675.25;;;24.60;52.25
62779;BME280;48821;48.796;2.396;2022-08-01T06:16:08;101672.72;;;24.59;52.37
62779;BME280;48821;48.796;2.396;2022-08-01T06:17:18;101667.56;;;24.56;52.41
62779;BME280;48821;48.796;2.396;2022-08-01T06:18:28;101668.53;;;24.55;52.36
62779;BME280;48821;48.796;2.396;2022-08-01T06:19:38;101674.66;;;24.57;52.45
62779;BME280;48821;48.796;2.396;2022-08-01T06:20:49;101668.44;;;24.56;52.18
62779;BME280;48821;48.796;2.396;2022-08-01T06:21:59;101673.66;;;24.58;52.59
62779;BME280;48821;48.796;2.396;2022-08-01T06:23:09;101671.97;;;24.57;52.34
62779;BME280;48821;48.796;2.396;2022-08-01T06:24:20;101668.28;;;24.58;52.60
62779;BME280;48821;48.796;2.396;2022-08-01T06:25:32;101674.41;;;24.60;52.79
62779;BME280;48821;48.796;2.396;2022-08-01T06:26:43;101665.63;;;24.58;52.37
62779;BME280;48821;48.796;2.396;2022-08-01T06:27:53;101672.72;;;24.59;52.08
62779;BME280;48821;48.796;2.396;2022-08-01T06:29:04;101670.13;;;24.57;52.19
62779;BME280;48821;48.796;2.396;2022-08-01T06:30:14;101670.13;;;24.57;52.10
62779;BME280;48821;48.796;2.396;2022-08-01T06:31:24;101679.19;;;24.56;52.31
62779;BME280;48821;48.796;2.396;2022-08-01T06:32:35;101678.31;;;24.56;52.39
62779;BME280;48821;48.796;2.396;2022-08-01T06:33:45;101682.72;;;24.57;52.14
62779;BME280;48821;48.796;2.396;2022-08-01T06:34:55;101681.88;;;24.56;52.41
62779;BME280;48821;48.796;2.396;2022-08-01T06:36:06;101680.03;;;24.57;52.60
62779;BME280;48821;48.796;2.396;2022-08-01T06:37:16;101683.47;;;24.59;52.15
62779;BME280;48821;48.796;2.396;2022-08-01T06:38:26;101682.47;;;24.60;52.50
62779;BME280;48821;48.796;2.396;2022-08-01T06:39:37;101677.81;;;24.62;52.40
62779;BME280;48821;48.796;2.396;2022-08-01T06:40:47;101678.69;;;24.63;52.49
62779;BME280;48821;48.796;2.396;2022-08-01T06:41:57;101670.75;;;24.61;52.24
62779;BME280;48821;48.796;2.396;2022-08-01T06:43:08;101674.03;;;24.65;52.39
62779;BME280;48821;48.796;2.396;2022-08-01T06:44:18;101665.97;;;24.65;52.23
62779;BME280;48821;48.796;2.396;2022-08-01T06:45:28;101679.19;;;24.68;52.58
62779;BME280;48821;48.796;2.396;2022-08-01T06:46:39;101680.78;;;24.70;52.45
62779;BME280;48821;48.796;2.396;2022-08-01T06:47:49;101671.75;;;24.71;52.37
62779;BME280;48821;48.796;2.396;2022-08-01T06:48:59;101672.56;;;24.72;52.29
62779;BME280;48821;48.796;2.396;2022-08-01T06:50:10;101678.72;;;24.74;52.34
62779;BME280;48821;48.796;2.396;2022-08-01T06:51:21;101670.50;;;24.76;52.42
62779;BME280;48821;48.796;2.396;2022-08-01T06:52:31;101670.38;;;24.77;52.15
62779;BME280;48821;48.796;2.396;2022-08-01T06:53:42;101676.75;;;24.76;52.23
62779;BME280;48821;48.796;2.396;2022-08-01T06:54:52;101674.06;;;24.76;52.26
62779;BME280;48821;48.796;2.396;2022-08-01T06:56:04;101673.19;;;24.76;52.30
62779;BME280;48821;48.796;2.396;2022-08-01T06:57:14;101670.50;;;24.76;51.84
62779;BME280;48821;48.796;2.396;2022-08-01T06:58:25;101675.16;;;24.73;52.51
62779;BME280;48821;48.796;2.396;2022-08-01T06:59:35;101671.47;;;24.75;52.27
62779;BME280;48821;48.796;2.396;2022-08-01T07:00:45;101675.16;;;24.73;52.73
62779;BME280;48821;48.796;2.396;2022-08-01T07:01:56;101673.34;;;24.74;52.21
62779;BME280;48821;48.796;2.396;2022-08-01T07:03:06;101672.47;;;24.73;52.18
62779;BME280;48821;48.796;2.396;2022-08-01T07:04:17;101673.44;;;24.72;52.55
62779;BME280;48821;48.796;2.396;2022-08-01T07:05:27;101676.13;;;24.72;52.14
62779;BME280;48821;48.796;2.396;2022-08-01T07:06:38;101671.75;;;24.71;52.73
62779;BME280;48821;48.796;2.396;2022-08-01T07:07:48;101679.53;;;24.75;52.07
62779;BME280;48821;48.796;2.396;2022-08-01T07:08:59;101678.56;;;24.76;52.33
62779;BME280;48821;48.796;2.396;2022-08-01T07:10:11;101677.59;;;24.77;52.04
62779;BME280;48821;48.796;2.396;2022-08-01T07:11:24;101676.84;;;24.75;52.14
62779;BME280;48821;48.796;2.396;2022-08-01T07:12:35;101674.28;;;24.73;52.35
62779;BME280;48821;48.796;2.396;2022-08-01T07:13:48;101685.19;;;24.71;52.22
62779;BME280;48821;48.796;2.396;2022-08-01T07:14:59;101682.50;;;24.71;52.45
62779;BME280;48821;48.796;2.396;2022-08-01T07:16:09;101675.25;;;24.72;52.73
62779;BME280;48821;48.796;2.396;2022-08-01T07:17:19;101685.91;;;24.73;52.10
62779;BME280;48821;48.796;2.396;2022-08-01T07:18:30;101685.91;;;24.73;52.32
62779;BME280;48821;48.796;2.396;2022-08-01T07:19:41;101680.53;;;24.73;52.03
62779;BME280;48821;48.796;2.396;2022-08-01T07:20:51;101678.81;;;24.72;52.18
62779;BME280;48821;48.796;2.396;2022-08-01T07:22:01;101677.94;;;24.72;52.64
62779;BME280;48821;48.796;2.396;2022-08-01T07:23:12;101673.44;;;24.72;52.19
62779;BME280;48821;48.796;2.396;2022-08-01T07:24:23;101680.53;;;24.73;52.08
62779;BME280;48821;48.796;2.396;2022-08-01T07:25:33;101673.34;;;24.74;52.17
62779;BME280;48821;48.796;2.396;2022-08-01T07:26:46;101676.84;;;24.75;52.50
62779;BME280;48821;48.796;2.396;2022-08-01T07:27:57;101675.88;;;24.76;52.78
62779;BME280;48821;48.796;2.396;2022-08-01T07:29:07;101674.94;;;24.77;52.32
62779;BME280;48821;48.796;2.396;2022-08-01T07:30:17;101672.81;;;24.80;52.73
62779;BME280;48821;48.796;2.396;2022-08-01T07:31:28;101676.25;;;24.82;52.15
62779;BME280;48821;48.796;2.396;2022-08-01T07:32:39;101676.16;;;24.84;52.12
62779;BME280;48821;48.796;2.396;2022-08-01T07:33:50;101680.53;;;24.85;52.17
62779;BME280;48821;48.796;2.396;2022-08-01T07:35:01;101680.38;;;24.87;52.00
62779;BME280;48821;48.796;2.396;2022-08-01T07:36:12;101690.03;;;24.89;52.01
62779;BME280;48821;48.796;2.396;2022-08-01T07:37:22;101681.97;;;24.89;52.28
62779;BME280;48821;48.796;2.396;2022-08-01T07:38:34;101689.09;;;24.90;51.42
62779;BME280;48821;48.796;2.396;2022-08-01T07:39:44;101689.94;;;24.91;52.33
62779;BME280;48821;48.796;2.396;2022-08-01T07:40:54;101686.03;;;24.95;51.80
62779;BME280;48821;48.796;2.396;2022-08-01T07:42:05;101686.88;;;24.95;51.71
62779;BME280;48821;48.796;2.396;2022-08-01T07:43:15;101687.63;;;24.98;51.67
62779;BME280;48821;48.796;2.396;2022-08-01T07:44:25;101684.78;;;24.99;51.63
62779;BME280;48821;48.796;2.396;2022-08-01T07:45:36;101688.38;;;25.00;51.78
62779;BME280;48821;48.796;2.396;2022-08-01T07:46:46;101691.06;;;25.00;51.55
62779;BME280;48821;48.796;2.396;2022-08-01T07:47:56;101695.19;;;25.04;51.82
62779;BME280;48821;48.796;2.396;2022-08-01T07:49:11;101696.94;;;25.05;51.39
62779;BME280;48821;48.796;2.396;2022-08-01T07:50:21;101694.97;;;25.07;51.49
62779;BME280;48821;48.796;2.396;2022-08-01T07:51:32;101692.28;;;25.07;51.60
62779;BME280;48821;48.796;2.396;2022-08-01T07:52:42;101695.59;;;25.11;51.40
62779;BME280;48821;48.796;2.396;2022-08-01T07:53:53;101704.25;;;25.14;51.33
62779;BME280;48821;48.796;2.396;2022-08-01T07:55:03;101707.66;;;25.16;51.50
62779;BME280;48821;48.796;2.396;2022-08-01T07:56:14;101707.41;;;25.20;51.19
62779;BME280;48821;48.796;2.396;2022-08-01T07:57:25;101711.69;;;25.22;51.77
62779;BME280;48821;48.796;2.396;2022-08-01T07:58:35;101700.09;;;25.22;51.67
62779;BME280;48821;48.796;2.396;2022-08-01T07:59:45;101705.34;;;25.23;51.35
62779;BME280;48821;48.796;2.396;2022-08-01T08:00:56;101716.84;;;25.25;51.25
62779;BME280;48821;48.796;2.396;2022-08-01T08:02:06;101714.88;;;25.27;50.80
62779;BME280;48821;48.796;2.396;2022-08-01T08:03:16;101710.09;;;25.31;51.35
62779;BME280;48821;48.796;2.396;2022-08-01T08:04:28;101716.47;;;25.30;51.43
62779;BME280;48821;48.796;2.396;2022-08-01T08:05:38;101713.63;;;25.32;50.77
62779;BME280;48821;48.796;2.396;2022-08-01T08:06:49;101710.22;;;25.29;51.00
62779;BME280;48821;48.796;2.396;2022-08-01T08:07:59;101710.22;;;25.29;51.12
62779;BME280;48821;48.796;2.396;2022-08-01T08:09:10;101709.13;;;25.32;50.70
62779;BME280;48821;48.796;2.396;2022-08-01T08:10:20;101708.25;;;25.32;50.46
62779;BME280;48821;48.796;2.396;2022-08-01T08:11:31;101721.72;;;25.32;50.78
62779;BME280;48821;48.796;2.396;2022-08-01T08:12:41;101717.31;;;25.31;50.60
62779;BME280;48821;48.796;2.396;2022-08-01T08:13:52;101718.06;;;25.33;50.56
62779;BME280;48821;48.796;2.396;2022-08-01T08:15:02;101716.09;;;25.35;50.72
62779;BME280;48821;48.796;2.396;2022-08-01T08:16:15;101715.84;;;25.38;50.56
62779;BME280;48821;48.796;2.396;2022-08-01T08:17:26;101716.44;;;25.42;50.79
62779;BME280;48821;48.796;2.396;2022-08-01T08:18:36;101710.94;;;25.43;50.70
62779;BME280;48821;48.796;2.396;2022-08-01T08:19:48;101708.84;;;25.47;50.77
62779;BME280;48821;48.796;2.396;2022-08-01T08:20:58;101717.63;;;25.49;50.73
62779;BME280;48821;48.796;2.396;2022-08-01T08:22:09;101718.38;;;25.51;50.76
62779;BME280;48821;48.796;2.396;2022-08-01T08:23:19;101706.00;;;25.48;50.43
62779;BME280;48821;48.796;2.396;2022-08-01T08:24:48;101723.88;;;25.49;50.28
62779;BME280;48821;48.796;2.396;2022-08-01T08:25:59;101714.47;;;25.44;50.36
62779;BME280;48821;48.796;2.396;2022-08-01T08:27:09;101713.25;;;25.36;50.29
62779;BME280;48821;48.796;2.396;2022-08-01T08:28:20;101709.13;;;25.32;49.93
62779;BME280;48821;48.796;2.396;2022-08-01T08:29:31;101711.31;;;25.27;50.26
62779;BME280;48821;48.796;2.396;2022-08-01T08:30:44;101710.84;;;25.22;50.19
62779;BME280;48821;48.796;2.396;2022-08-01T08:31:56;101710.97;;;25.20;50.48
62779;BME280;48821;48.796;2.396;2022-08-01T08:33:06;101710.13;;;25.20;50.40
62779;BME280;48821;48.796;2.396;2022-08-01T08:34:16;101710.84;;;25.22;50.52
62779;BME280;48821;48.796;2.396;2022-08-01T08:35:27;101708.63;;;25.27;50.60
62779;BME280;48821;48.796;2.396;2022-08-01T08:36:37;101715.47;;;25.31;50.71
62779;BME280;48821;48.796;2.396;2022-08-01T08:37:48;101717.91;;;25.34;50.60
62779;BME280;48821;48.796;2.396;2022-08-01T08:38:59;101720.38;;;25.37;50.23
62779;BME280;48821;48.796;2.396;2022-08-01T08:40:14;101720.94;;;25.41;50.18
62779;BME280;48821;48.796;2.396;2022-08-01T08:41:25;101716.44;;;25.42;50.29
62779;BME280;48821;48.796;2.396;2022-08-01T08:42:39;101711.06;;;25.42;50.07
62779;BME280;48821;48.796;2.396;2022-08-01T08:43:49;101712.78;;;25.43;49.98
62779;BME280;48821;48.796;2.396;2022-08-01T08:45:00;101709.09;;;25.44;49.88
62779;BME280;48821;48.796;2.396;2022-08-01T08:46:11;101697.34;;;25.45;49.53
62779;BME280;48821;48.796;2.396;2022-08-01T08:47:24;101694.53;;;25.46;49.31
62779;BME280;48821;48.796;2.396;2022-08-01T08:48:36;101700.78;;;25.47;49.70
62779;BME280;48821;48.796;2.396;2022-08-01T08:49:50;101701.50;;;25.49;49.48
62779;BME280;48821;48.796;2.396;2022-08-01T08:51:01;101695.38;;;25.47;49.73
62779;BME280;48821;48.796;2.396;2022-08-01T08:52:12;101689.03;;;25.48;49.22
62779;BME280;48821;48.796;2.396;2022-08-01T08:53:24;101690.50;;;25.52;49.59
62779;BME280;48821;48.796;2.396;2022-08-01T08:54:37;101693.91;;;25.54;49.60
62779;BME280;48821;48.796;2.396;2022-08-01T08:55:48;101686.31;;;25.59;49.49
62779;BME280;48821;48.796;2.396;2022-08-01T08:57:00;101686.06;;;25.62;49.66
62779;BME280;48821;48.796;2.396;2022-08-01T08:58:14;101688.38;;;25.67;49.29
62779;BME280;48821;48.796;2.396;2022-08-01T08:59:27;101685.28;;;25.72;49.86
62779;BME280;48821;48.796;2.396;2022-08-01T09:00:41;101683.09;;;25.77;49.08
62779;BME280;48821;48.796;2.396;2022-08-01T09:01:52;101687.94;;;25.83;49.54
62779;BME280;48821;48.796;2.396;2022-08-01T09:03:02;101684.75;;;25.90;49.38
62779;BME280;48821;48.796;2.396;2022-08-01T09:04:13;101684.38;;;25.94;49.03
62779;BME280;48821;48.796;2.396;2022-08-01T09:05:23;101691.19;;;25.99;48.51
62779;BME280;48821;48.796;2.396;2022-08-01T09:06:38;101688.00;;;26.05;48.77
62779;BME280;48821;48.796;2.396;2022-08-01T09:07:48;101685.88;;;26.09;48.67
62779;BME280;48821;48.796;2.396;2022-08-01T09:08:59;101685.47;;;26.13;49.21
62779;BME280;48821;48.796;2.396;2022-08-01T09:10:10;101687.06;;;26.16;47.96
62779;BME280;48821;48.796;2.396;2022-08-01T09:11:20;101690.47;;;26.18;47.53
62779;BME280;48821;48.796;2.396;2022-08-01T09:12:30;101685.09;;;26.18;47.54
62779;BME280;48821;48.796;2.396;2022-08-01T09:14:01;101686.66;;;26.21;47.44
62779;BME280;48821;48.796;2.396;2022-08-01T09:15:12;101681.41;;;26.19;47.19
62779;BME280;48821;48.796;2.396;2022-08-01T09:16:22;101681.41;;;26.19;46.98
62779;BME280;48821;48.796;2.396;2022-08-01T09:17:40;101678.00;;;26.17;46.80
62779;BME280;48821;48.796;2.396;2022-08-01T09:18:51;101684.38;;;26.16;47.12
62779;BME280;48821;48.796;2.396;2022-08-01T09:20:02;101677.16;;;26.16;47.37
62779;BME280;48821;48.796;2.396;2022-08-01T09:21:18;101690.75;;;26.15;47.06
62779;BME280;48821;48.796;2.396;2022-08-01T09:22:32;101695.88;;;26.18;47.19
62779;BME280;48821;48.796;2.396;2022-08-01T09:23:47;101697.59;;;26.19;47.68
62779;BME280;48821;48.796;2.396;2022-08-01T09:26:19;101700.03;;;26.22;47.45
62779;BME280;48821;48.796;2.396;2022-08-01T09:27:31;101700.03;;;26.22;46.68
62779;BME280;48821;48.796;2.396;2022-08-01T09:28:42;101695.88;;;26.18;46.58
62779;BME280;48821;48.796;2.396;2022-08-01T09:29:53;101701.78;;;26.12;47.05
62779;BME280;48821;48.796;2.396;2022-08-01T09:31:09;101708.44;;;26.07;46.66
62779;BME280;48821;48.796;2.396;2022-08-01T09:32:20;101704.25;;;26.03;47.17
62779;BME280;48821;48.796;2.396;2022-08-01T09:35:33;101698.03;;;26.03;47.36
62779;BME280;48821;48.796;2.396;2022-08-01T09:36:58;101702.28;;;26.05;47.33
62779;BME280;48821;48.796;2.396;2022-08-01T09:38:14;101701.31;;;26.06;47.26
62779;BME280;48821;48.796;2.396;2022-08-01T09:39:28;101701.19;;;26.08;47.78
62779;BME280;48821;48.796;2.396;2022-08-01T09:40:49;101701.78;;;26.12;47.27
62779;BME280;48821;48.796;2.396;2022-08-01T09:42:01;101694.44;;;26.14;47.06
62779;BME280;48821;48.796;2.396;2022-08-01T09:43:12;101698.84;;;26.15;47.63
62779;BME280;48821;48.796;2.396;2022-08-01T09:44:43;101701.25;;;26.18;46.49
62779;BME280;48821;48.796;2.396;2022-08-01T09:45:55;101703.84;;;26.20;46.81
62779;BME280;48821;48.796;2.396;2022-08-01T09:47:05;101698.56;;;26.18;46.39
62779;BME280;48821;48.796;2.396;2022-08-01T09:48:17;101700.53;;;26.16;46.81
62779;BME280;48821;48.796;2.396;2022-08-01T09:49:33;101704.34;;;26.13;46.91
62779;BME280;48821;48.796;2.396;2022-08-01T09:50:48;101704.22;;;26.15;46.90
62779;BME280;48821;48.796;2.396;2022-08-01T09:52:12;101704.34;;;26.13;46.48
62779;BME280;48821;48.796;2.396;2022-08-01T09:53:23;101707.03;;;26.13;46.31
62779;BME280;48821;48.796;2.396;2022-08-01T09:54:33;101707.19;;;26.12;45.81
62779;BME280;48821;48.796;2.396;2022-08-01T09:55:44;101709.16;;;26.10;46.54
62779;BME280;48821;48.796;2.396;2022-08-01T09:57:11;101712.97;;;26.07;46.49
62779;BME280;48821;48.796;2.396;2022-08-01T09:58:22;101700.59;;;26.04;46.74
62779;BME280;48821;48.796;2.396;2022-08-01T09:59:37;101714.06;;;26.04;46.93
62779;BME280;48821;48.796;2.396;2022-08-01T10:00:59;101716.03;;;26.02;47.20
62779;BME280;48821;48.796;2.396;2022-08-01T10:02:33;101720.44;;;26.03;47.03
62779;BME280;48821;48.796;2.396;2022-08-01T10:03:43;101711.63;;;26.01;46.77
62779;BME280;48821;48.796;2.396;2022-08-01T10:04:54;101707.09;;;26.02;47.02
62779;BME280;48821;48.796;2.396;2022-08-01T10:06:21;101708.78;;;26.03;47.31
62779;BME280;48821;48.796;2.396;2022-08-01T10:07:32;101693.50;;;26.03;47.24
62779;BME280;48821;48.796;2.396;2022-08-01T10:08:47;101695.78;;;26.08;46.86
62779;BME280;48821;48.796;2.396;2022-08-01T10:10:14;101704.00;;;26.06;46.27
62779;BME280;48821;48.796;2.396;2022-08-01T10:11:25;101699.75;;;26.04;46.75
62779;BME280;48821;48.796;2.396;2022-08-01T10:12:37;101703.41;;;26.03;46.82
62779;BME280;48821;48.796;2.396;2022-08-01T10:13:48;101710.66;;;26.02;47.26
62779;BME280;48821;48.796;2.396;2022-08-01T10:14:58;101711.47;;;26.03;46.94
62779;BME280;48821;48.796;2.396;2022-08-01T10:16:09;101709.91;;;26.00;47.19
62779;BME280;48821;48.796;2.396;2022-08-01T10:17:24;101714.31;;;26.01;47.14
62779;BME280;48821;48.796;2.396;2022-08-01T10:18:37;101712.50;;;26.02;47.09
62779;BME280;48821;48.796;2.396;2022-08-01T10:19:49;101712.50;;;26.02;46.85
62779;BME280;48821;48.796;2.396;2022-08-01T10:21:02;101711.63;;;26.01;47.30
62779;BME280;48821;48.796;2.396;2022-08-01T10:22:14;101711.63;;;26.01;47.00
62779;BME280;48821;48.796;2.396;2022-08-01T10:23:33;101719.84;;;26.00;46.67
62779;BME280;48821;48.796;2.396;2022-08-01T10:24:46;101715.44;;;25.99;47.13
62779;BME280;48821;48.796;2.396;2022-08-01T10:25:58;101713.00;;;25.95;47.16
62779;BME280;48821;48.796;2.396;2022-08-01T10:27:09;101708.47;;;25.96;46.56
62779;BME280;48821;48.796;2.396;2022-08-01T10:28:21;101707.50;;;25.97;46.76
62779;BME280;48821;48.796;2.396;2022-08-01T10:29:36;101709.06;;;26.00;46.64
62779;BME280;48821;48.796;2.396;2022-08-01T10:30:47;101707.09;;;26.02;46.55
62779;BME280;48821;48.796;2.396;2022-08-01T10:31:58;101717.63;;;26.05;46.96
62779;BME280;48821;48.796;2.396;2022-08-01T10:33:10;101713.69;;;26.09;46.43
62779;BME280;48821;48.796;2.396;2022-08-01T10:34:20;101715.13;;;26.13;46.90
62779;BME280;48821;48.796;2.396;2022-08-01T10:35:31;101715.72;;;26.17;46.82
62779;BME280;48821;48.796;2.396;2022-08-01T10:36:43;101709.78;;;26.23;46.80
62779;BME280;48821;48.796;2.396;2022-08-01T10:37:54;101707.00;;;26.25;46.65
62779;BME280;48821;48.796;2.396;2022-08-01T10:39:10;101712.69;;;26.32;46.88
62779;BME280;48821;48.796;2.396;2022-08-01T10:40:22;101705.34;;;26.34;46.70
62779;BME280;48821;48.796;2.396;2022-08-01T10:41:33;101710.47;;;26.37;46.85
62779;BME280;48821;48.796;2.396;2022-08-01T10:42:45;101705.66;;;26.40;46.96
62779;BME280;48821;48.796;2.396;2022-08-01T10:43:55;101697.19;;;26.45;46.85
62779;BME280;48821;48.796;2.396;2022-08-01T10:45:09;101697.81;;;26.49;46.42
62779;BME280;48821;48.796;2.396;2022-08-01T10:46:19;101692.00;;;26.54;46.48
62779;BME280;48821;48.796;2.396;2022-08-01T10:47:42;101691.34;;;26.61;46.76
62779;BME280;48821;48.796;2.396;2022-08-01T10:49:15;101694.75;;;26.63;45.89
62779;BME280;48821;48.796;2.396;2022-08-01T10:50:48;101697.31;;;26.65;46.30
62779;BME280;48821;48.796;2.396;2022-08-01T10:51:59;101695.63;;;26.64;46.36
62779;BME280;48821;48.796;2.396;2022-08-01T10:53:16;101707.97;;;26.67;46.01
62779;BME280;48821;48.796;2.396;2022-08-01T10:54:26;101706.97;;;26.68;46.24
62779;BME280;48821;48.796;2.396;2022-08-01T10:55:50;101706.09;;;26.67;46.41
62779;BME280;48821;48.796;2.396;2022-08-01T10:57:01;101708.94;;;26.66;45.69
62779;BME280;48821;48.796;2.396;2022-08-01T10:58:11;101709.09;;;26.64;45.74
62779;BME280;48821;48.796;2.396;2022-08-01T10:59:27;101713.63;;;26.63;45.95
62779;BME280;48821;48.796;2.396;2022-08-01T11:00:37;101704.69;;;26.63;45.55
62779;BME280;48821;48.796;2.396;2022-08-01T11:02:08;101693.91;;;26.63;45.82
62779;BME280;48821;48.796;2.396;2022-08-01T11:03:33;101699.28;;;26.63;45.63
62779;BME280;48821;48.796;2.396;2022-08-01T11:04:54;101699.28;;;26.63;45.81
62779;BME280;48821;48.796;2.396;2022-08-01T11:06:05;101701.13;;;26.62;46.07
62779;BME280;48821;48.796;2.396;2022-08-01T11:07:18;101701.13;;;26.62;46.19
62779;BME280;48821;48.796;2.396;2022-08-01T11:08:31;101701.25;;;26.61;46.07
62779;BME280;48821;48.796;2.396;2022-08-01T11:09:47;101695.88;;;26.61;46.33
62779;BME280;48821;48.796;2.396;2022-08-01T11:11:01;101702.69;;;26.65;46.12
62779;BME280;48821;48.796;2.396;2022-08-01T11:12:13;101694.50;;;26.67;46.32
62779;BME280;48821;48.796;2.396;2022-08-01T11:16:27;101700.00;;;26.65;46.21
62779;BME280;48821;48.796;2.396;2022-08-01T11:17:43;101701.00;;;26.64;45.82